Strona główna
METAR-TAF:

METAR-TAF

Lotnisko :

Port lotniczy Siegen

Siegen, Niemcy

Szerokość geograficzna: 50-42-28N, Długość geograficzna: 008-04-59E, wysokość: 602 m

Aktualna obserwacja pogody

Raport powstał 39 minut temu, godzina 12:50 UTC
Wiatr 9 kt od zachodnio-północny zachód, zmienny między zachodnio-południowy zachód i północno-północny zachód
Temperatura 22°C
Wilgotność 41%
Ciśnienie 1005 hPa
Widzialność 10 km lub więcej
Brak chmur poniżej 1500 m i brak chmur cumulonimbus

METAR: EDGS 031250Z 30009KT 250V340 CAVOK 22/08 Q1005

czas: 15:29 (13:29 UTC)

Prognoza

Raport powstał 2 godziny i 29 minut temu, godzina 11:00 UTC
Prognoza ważna od 03 godzina 12 UTC do 03 godzina 21 UTC
Wiatr 5 kt od zachodnio-północny zachód
Widzialność 10 km lub więcej
Brak chmur poniżej 1500 m i brak chmur cumulonimbus
Stopniowe zmiany
od 03 godzina 18 UTC do 03 godzina 21 UTC
Wiatr 3 kt z kierunków zmiennych

TAF: EDGS 031100Z 0312/0321 30005KT CAVOK BECMG 0318/0321 VRB03KT

Obserwacja i prognoza pogody dla ponad 4000 lotnisk (raport METAR i TAF).

Dostępne stacje oznaczono żółtymi i czerwonymi punktami na mapie.

Najedź kursorem aby zobaczyć nazwę stacji.

Kliknij aby zobaczyć obserwacje i prognozy pogody.

Aby zmienić mapę: kliknij na zielony przycisk z czarnym krzyżykiem, aby powiększyć; na zielony przycisk z myślnikiem, aby pomniejszyć; na zielone strzałki, aby przejść do map sąsiednich.


METAR-TAF: